Terminal Aerodrome Forecast
Issued by NWS

Home | Current Version | Previous Version | Text Only | Print | Product List | Glossary On
Versions: 1 2 3 4 5 6 7 8 9 10 11 12 13 14 15 16 17
256
FTUS42 KGSP 272324
TAFGMU
TAF
KGMU 272324Z 2800/2824 24008KT P6SM SCT050
     FM280200 25006KT P6SM VCTS BKN050CB
     FM280500 25005KT P6SM VCSH SCT050 BKN200
     FM281500 23009G16KT P6SM SCT050 BKN150 PROB30 2817/2823 3SM
      TSRA OVC035CB=

USA.gov is the U.S. government's official web portal to all federal, state and local government web resources and services.